KRAP/RAP METAR and TAF weather

Enter ICAO airport designator
Station Type Date Time Source
KRAP METAR 2021/09/23 23:52 UTC NOAA

KRAP 232352Z 36016KT 10SM CLR 24/02 A3001 RMK AO2 SLP151 T02440022 10278 20239 53009


Station Type Date Time Source
KRAP Decoded METAR 2021/09/23 23:52 UTC NOAA

RAPID CITY REGIONAL AIRPORT , SD, United States (KRAP) 44-03N 103-03W 965M
Sep 23, 2021 - 07:52 PM EDT / 2021.09.23 2352 UTC
Wind: from the N (360 degrees) at 18 MPH (16 KT):0
Visibility: 10 mile(s):0
Sky conditions: clear
Temperature: 75.9 F (24.4 C)
Dew Point: 36.0 F (2.2 C)
Relative Humidity: 23%
Pressure (altimeter): 30.01 in. Hg (1016 hPa)
Pressure tendency: 0.03 inches (0.9 hPa) higher than three hours ago
ob: KRAP 232352Z 36016KT 10SM CLR 24/02 A3001 RMK AO2 SLP151 T02440022 10278 20239 53009
cycle: 0

Station Type Date Time Source
KRAP TAF 2021/09/23 18:22 UTC NOAA

TAF KRAP 231720Z 2318/2418 34025G35KT P6SM SCT200
FM232200 35015G25KT P6SM SCT200
FM240000 33012KT P6SM BKN100

Example: see airport list